Time;durP1;ratioP1;P1;durP2;ratioP2;P2;SDS_P1;SDS_P2;PMS_P1;PMS_P2;Temp;Humidity;BMP_temperature;BMP_pressure;BME280_temperature;BME280_humidity;BME280_pressure;Samples;Min_cycle;Max_cycle;Signal;HPM_P1;HPM_P2
2022/07/12 00:02:28;;;;;;;1.58;1.27;;;32.40;99.90;;;;;;5061909;28;20227;-96
2022/07/12 00:05:00;;;;;;;2.47;1.45;;;32.50;99.90;;;;;;5063303;28;20235;-96
2022/07/12 00:07:40;;;;;;;2.17;1.38;;;32.50;99.00;;;;;;5060642;28;20254;-96
2022/07/12 00:10:25;;;;;;;2.17;1.10;;;32.40;98.40;;;;;;5062986;28;20214;-96
2022/07/12 00:13:00;;;;;;;2.13;1.40;;;32.30;98.70;;;;;;5062216;28;20212;-96
2022/07/12 00:15:40;;;;;;;1.25;1.10;;;32.40;99.20;;;;;;5065826;28;20278;-96
2022/07/12 00:21:15;;;;;;;1.20;1.10;;;32.70;96.90;;;;;;5072351;28;20257;-96
2022/07/12 00:23:55;;;;;;;2.70;1.58;;;32.40;97.70;;;;;;5062763;28;20239;-96
2022/07/12 00:26:29;;;;;;;4.25;1.30;;;32.30;98.20;;;;;;5064426;28;20239;-96
2022/07/12 00:29:06;;;;;;;3.50;1.45;;;32.00;98.50;;;;;;5063425;28;20207;-96
2022/07/12 00:31:42;;;;;;;1.58;1.48;;;32.10;99.20;;;;;;5061842;28;20269;-96
2022/07/12 00:34:18;;;;;;;4.05;1.50;;;32.20;98.80;;;;;;5061434;28;20214;-96
2022/07/12 00:36:55;;;;;;;3.78;1.70;;;32.10;99.20;;;;;;5060597;28;20212;-96
2022/07/12 00:39:27;;;;;;;5.45;1.58;;;32.00;99.90;;;;;;5060482;28;20301;-96
2022/07/12 00:42:00;;;;;;;4.30;1.40;;;32.00;99.90;;;;;;5059550;28;20739;-96
2022/07/12 00:44:33;;;;;;;1.88;1.70;;;31.50;99.90;;;;;;5058932;28;20232;-96
2022/07/12 00:47:05;;;;;;;4.28;1.67;;;30.90;99.90;;;;;;5062084;28;20208;-96
2022/07/12 00:49:39;;;;;;;1.80;1.50;;;30.70;99.90;;;;;;5060142;28;20208;-96
2022/07/12 00:52:11;;;;;;;2.08;1.60;;;30.80;99.90;;;;;;5044712;28;20239;-96
2022/07/12 00:54:43;;;;;;;3.15;1.80;;;30.90;99.90;;;;;;5048552;28;20250;-96
2022/07/12 00:57:18;;;;;;;2.70;1.80;;;30.80;99.90;;;;;;5053833;28;20224;-96
2022/07/12 01:02:38;;;;;;;2.83;1.13;;;31.70;98.00;;;;;;5141299;22;20244;-96
2022/07/12 01:05:18;;;;;;;1.52;0.93;;;32.20;96.50;;;;;;5088125;22;20239;-96
2022/07/12 01:07:54;;;;;;;0.70;0.70;;;32.80;94.90;;;;;;5060328;28;20212;-96
2022/07/12 01:10:34;;;;;;;1.00;1.00;;;33.20;92.70;;;;;;5132505;22;20258;-96
2022/07/12 01:13:05;;;;;;;0.82;0.77;;;33.60;93.20;;;;;;5077020;28;20203;-96
2022/07/12 01:15:39;;;;;;;1.23;1.13;;;33.90;91.90;;;;;;5076779;28;20192;-96
2022/07/12 01:18:14;;;;;;;2.10;1.50;;;34.10;92.70;;;;;;5076336;28;20191;-96
2022/07/12 01:20:48;;;;;;;3.10;1.50;;;34.10;93.40;;;;;;5073793;28;20243;-96
2022/07/12 01:23:25;;;;;;;1.58;1.48;;;34.30;94.00;;;;;;5063546;28;20207;-96
2022/07/12 01:25:56;;;;;;;3.03;1.40;;;34.90;93.30;;;;;;5066214;28;20246;-96
2022/07/12 01:28:32;;;;;;;1.10;1.10;;;34.80;93.40;;;;;;5064762;28;20235;-96
2022/07/12 01:31:05;;;;;;;2.60;1.30;;;35.20;92.50;;;;;;5170023;22;20240;-96
2022/07/12 01:33:37;;;;;;;1.52;1.40;;;34.60;93.10;;;;;;5042478;28;20212;-96
2022/07/12 01:36:12;;;;;;;2.63;1.88;;;33.80;95.40;;;;;;5044143;28;20208;-96
2022/07/12 01:42:13;;;;;;;1.48;1.20;;;33.40;96.70;;;;;;5052122;28;20208;-96
2022/07/12 01:44:48;;;;;;;1.88;1.23;;;33.80;93.10;;;;;;5053795;28;20236;-96
2022/07/12 01:47:25;;;;;;;2.80;1.50;;;33.80;94.10;;;;;;5051931;28;20272;-96
2022/07/12 01:50:03;;;;;;;5.28;1.75;;;33.20;96.70;;;;;;5051003;28;20213;-96
2022/07/12 01:58:47;;;;;;;3.83;1.50;;;34.40;95.00;;;;;;5046582;28;20200;-96
2022/07/12 02:01:22;;;;;;;1.90;1.70;;;34.20;95.10;;;;;;5051225;28;20208;-96
2022/07/12 02:04:09;;;;;;;1.98;1.70;;;34.60;95.40;;;;;;5053788;28;20208;-96
2022/07/12 02:09:34;;;;;;;1.67;1.40;;;34.70;93.60;;;;;;5036146;28;20239;-96
2022/07/12 02:12:21;;;;;;;2.70;1.05;;;34.50;93.30;;;;;;5036377;28;20273;-96
2022/07/12 02:15:18;;;;;;;4.60;1.40;;;34.30;91.70;;;;;;5021376;28;20186;-96
2022/07/12 02:17:53;;;;;;;3.40;1.05;;;34.00;91.10;;;;;;5035905;28;20201;-96
2022/07/12 02:20:39;;;;;;;1.80;1.10;;;33.40;91.40;;;;;;5021282;28;20193;-96
2022/07/12 02:23:14;;;;;;;1.83;1.10;;;33.20;91.60;;;;;;5119534;22;20240;-96
2022/07/12 02:28:48;;;;;;;2.42;1.33;;;32.70;92.00;;;;;;5077111;28;20211;-96
2022/07/12 02:31:37;;;;;;;1.20;1.10;;;32.20;92.20;;;;;;5079905;28;20210;-96
2022/07/12 02:34:17;;;;;;;1.20;1.10;;;32.10;92.20;;;;;;5385461;22;20232;-96
2022/07/12 02:39:46;;;;;;;1.42;1.33;;;31.20;91.80;;;;;;5346815;22;20217;-96
2022/07/12 02:42:24;;;;;;;1.23;1.13;;;30.50;92.50;;;;;;5053557;28;20236;-96
2022/07/12 02:47:47;;;;;;;4.15;0.98;;;29.30;93.40;;;;;;5049180;28;20204;-96
2022/07/12 02:50:22;;;;;;;1.42;1.33;;;28.80;93.70;;;;;;5051751;28;20264;-96
2022/07/12 02:53:07;;;;;;;0.88;0.88;;;28.50;94.20;;;;;;5048359;28;20228;-96
2022/07/12 02:55:40;;;;;;;1.90;0.93;;;28.20;93.70;;;;;;5050045;28;20236;-96
2022/07/12 02:58:20;;;;;;;2.53;1.10;;;27.90;94.50;;;;;;5057566;28;20197;-96
2022/07/12 03:06:52;;;;;;;2.17;0.80;;;27.20;94.80;;;;;;5139738;23;20251;-96
2022/07/12 03:09:43;;;;;;;0.83;0.83;;;27.10;94.00;;;;;;5057583;28;20268;-96
2022/07/12 03:12:18;;;;;;;0.80;0.63;;;26.90;94.40;;;;;;5057869;28;20252;-96
2022/07/12 03:20:44;;;;;;;2.63;0.90;;;26.50;94.80;;;;;;5053636;28;20232;-96
2022/07/12 03:23:18;;;;;;;1.03;0.90;;;26.40;95.70;;;;;;5050080;28;20208;-96
2022/07/12 03:25:56;;;;;;;1.40;1.10;;;26.30;95.70;;;;;;5047895;28;20299;-96
2022/07/12 03:28:42;;;;;;;1.37;1.10;;;26.20;96.40;;;;;;5049383;28;20243;-96
2022/07/12 03:31:26;;;;;;;1.10;0.90;;;25.90;96.40;;;;;;5051176;28;20220;-96
2022/07/12 03:34:12;;;;;;;1.43;1.10;;;25.80;96.90;;;;;;5051087;28;20219;-96
2022/07/12 03:36:46;;;;;;;2.33;1.10;;;25.70;97.20;;;;;;5047809;28;20286;-96
2022/07/12 03:48:44;;;;;;;1.67;1.20;;;25.20;98.60;;;;;;5046821;28;20201;-96
2022/07/12 03:54:20;;;;;;;1.63;1.10;;;25.00;98.90;;;;;;5053650;28;20228;-96
2022/07/12 04:06:02;;;;;;;1.00;1.00;;;24.70;98.90;;;;;;5053869;28;20323;-96
2022/07/12 04:11:30;;;;;;;2.97;1.10;;;24.50;99.90;;;;;;5678170;22;20637;-96
2022/07/12 04:14:14;;;;;;;1.60;1.20;;;24.40;99.90;;;;;;5049292;28;20239;-96
2022/07/12 04:19:57;;;;;;;1.43;1.20;;;24.10;99.90;;;;;;5051529;28;20209;-96
2022/07/12 05:03:32;;;;;;;4.07;2.07;;;22.40;99.90;;;;;;5332478;22;20254;-96
2022/07/12 05:06:14;;;;;;;2.13;1.60;;;22.40;99.90;;;;;;5072696;28;20287;-96
2022/07/12 05:08:46;;;;;;;3.47;1.70;;;22.30;99.90;;;;;;5071473;28;20208;-96
2022/07/12 05:11:22;;;;;;;3.17;1.90;;;22.20;99.90;;;;;;5073215;28;20208;-96
2022/07/12 05:13:54;;;;;;;2.10;1.90;;;22.10;99.90;;;;;;5072502;28;20212;-96
2022/07/12 05:16:27;;;;;;;2.17;1.93;;;22.00;99.90;;;;;;5067616;28;20200;-96
2022/07/12 05:22:05;;;;;;;2.90;1.80;;;21.90;99.90;;;;;;5070356;28;20272;-96
2022/07/12 05:24:50;;;;;;;1.97;1.70;;;21.80;99.90;;;;;;5064191;28;20673;-96
2022/07/12 05:27:30;;;;;;;3.07;1.93;;;21.70;99.90;;;;;;5070207;28;20216;-96
2022/07/12 05:30:02;;;;;;;2.30;1.90;;;21.60;99.90;;;;;;5060767;28;20207;-96
2022/07/12 05:32:37;;;;;;;2.80;1.97;;;21.70;99.90;;;;;;5061681;28;20208;-96
2022/07/12 05:35:39;;;;;;;2.33;1.70;;;21.60;99.90;;;;;;5069421;28;20203;-96
2022/07/12 05:38:26;;;;;;;1.80;1.70;;;21.50;99.90;;;;;;5066262;28;20256;-96
2022/07/12 05:41:02;;;;;;;3.67;1.73;;;21.50;99.90;;;;;;5069343;28;20192;-96
2022/07/12 05:43:35;;;;;;;3.17;1.50;;;21.50;99.90;;;;;;5062836;28;20214;-96
2022/07/12 05:46:17;;;;;;;3.03;1.80;;;21.50;99.90;;;;;;5065324;28;20243;-96
2022/07/12 05:48:54;;;;;;;1.67;1.50;;;21.40;99.90;;;;;;5064576;28;20213;-96
2022/07/12 05:54:34;;;;;;;1.80;1.33;;;21.20;99.90;;;;;;5062572;28;20208;-96
2022/07/12 05:57:10;;;;;;;2.50;1.40;;;21.20;99.90;;;;;;5060648;28;20211;-96
2022/07/12 06:02:41;;;;;;;1.37;1.20;;;21.10;99.90;;;;;;5060015;28;20212;-96
2022/07/12 06:05:17;;;;;;;2.63;1.50;;;21.20;99.90;;;;;;5064307;28;20207;-96
2022/07/12 06:08:01;;;;;;;1.10;1.00;;;21.20;99.90;;;;;;5063433;28;20196;-96
2022/07/12 06:10:46;;;;;;;1.87;1.23;;;21.20;99.90;;;;;;5066446;28;20246;-96
2022/07/12 06:13:19;;;;;;;2.90;1.30;;;21.20;99.90;;;;;;5065453;28;20266;-96
2022/07/12 06:15:50;;;;;;;0.97;0.97;;;21.10;99.90;;;;;;5064837;28;20265;-96
2022/07/12 06:18:22;;;;;;;2.07;1.10;;;21.10;99.90;;;;;;5066135;28;20212;-96
2022/07/12 06:20:55;;;;;;;1.13;1.00;;;21.00;99.90;;;;;;5068286;28;20208;-96
2022/07/12 06:26:58;;;;;;;1.83;1.00;;;20.90;99.90;;;;;;5075579;28;20258;-96
2022/07/12 06:29:34;;;;;;;1.33;0.97;;;20.80;99.90;;;;;;5064340;28;20215;-96
2022/07/12 06:32:07;;;;;;;1.63;1.10;;;20.70;99.90;;;;;;5066488;28;20208;-96
2022/07/12 06:37:35;;;;;;;1.07;0.97;;;20.60;99.90;;;;;;5351956;22;20196;-96
2022/07/12 06:40:10;;;;;;;4.33;1.07;;;20.40;99.90;;;;;;5077185;28;20216;-96
2022/07/12 06:42:42;;;;;;;1.10;1.00;;;20.40;99.90;;;;;;5067947;28;20302;-95
2022/07/12 06:54:07;;;;;;;0.93;0.87;;;20.20;99.90;;;;;;5068749;28;20207;-96
2022/07/12 07:13:40;;;;;;;1.33;0.80;;;19.70;99.90;;;;;;5336547;22;20219;-96
2022/07/12 07:24:31;;;;;;;2.80;1.00;;;19.50;99.90;;;;;;5077829;28;20206;-96
2022/07/12 07:27:04;;;;;;;0.70;0.70;;;19.40;99.90;;;;;;5071689;28;20664;-96
2022/07/12 07:32:31;;;;;;;4.20;1.00;;;19.40;99.90;;;;;;5063219;28;20208;-96
2022/07/12 07:38:17;;;;;;;1.17;0.70;;;19.30;99.90;;;;;;5072549;28;20574;-96
2022/07/12 07:44:08;;;;;;;1.17;0.93;;;19.10;99.90;;;;;;5077358;28;20188;-96
2022/07/12 07:46:52;;;;;;;1.40;0.90;;;19.00;99.90;;;;;;5074092;28;20312;-96
2022/07/12 07:52:34;;;;;;;1.10;1.00;;;19.00;99.90;;;;;;5076286;28;20192;-96
2022/07/12 07:55:07;;;;;;;1.60;0.80;;;18.90;99.90;;;;;;5074120;28;20200;-96
2022/07/12 08:03:16;;;;;;;1.40;1.30;;;18.80;99.90;;;;;;5065628;23;20236;-96
2022/07/12 08:05:52;;;;;;;2.30;1.30;;;18.70;99.90;;;;;;5065769;28;20251;-96
2022/07/12 08:08:30;;;;;;;2.60;1.10;;;18.70;99.90;;;;;;5065359;28;20239;-96
2022/07/12 08:11:21;;;;;;;3.23;1.10;;;18.60;99.90;;;;;;5057992;28;20247;-96
2022/07/12 08:13:53;;;;;;;1.73;1.30;;;18.60;99.90;;;;;;5058542;28;20228;-96
2022/07/12 08:16:26;;;;;;;2.13;1.10;;;18.60;99.90;;;;;;5064118;28;20200;-96
2022/07/12 08:19:04;;;;;;;2.77;1.40;;;18.50;99.90;;;;;;5059711;28;20290;-96
2022/07/12 08:21:36;;;;;;;2.87;1.23;;;18.50;99.90;;;;;;5058809;28;20203;-96
2022/07/12 08:24:09;;;;;;;1.67;1.17;;;18.40;99.90;;;;;;5062092;28;20200;-96
2022/07/12 08:26:45;;;;;;;1.83;1.20;;;18.40;99.90;;;;;;5058384;28;20208;-96
2022/07/12 08:29:17;;;;;;;1.47;1.37;;;18.40;99.90;;;;;;5059042;28;20215;-96
2022/07/12 08:31:49;;;;;;;1.37;1.27;;;18.30;99.90;;;;;;5058770;28;20575;-96
2022/07/12 08:34:23;;;;;;;3.40;1.30;;;18.40;99.90;;;;;;5060159;28;20208;-96
2022/07/12 08:36:55;;;;;;;1.43;1.17;;;18.40;99.90;;;;;;5062626;28;20724;-96
2022/07/12 08:39:28;;;;;;;1.97;1.50;;;18.30;99.90;;;;;;5060726;28;20588;-96
2022/07/12 08:42:00;;;;;;;2.10;1.23;;;18.30;99.90;;;;;;5062297;28;20212;-96
2022/07/12 08:44:31;;;;;;;2.67;1.17;;;18.20;99.90;;;;;;5062321;28;20216;-96
2022/07/12 08:47:05;;;;;;;1.37;1.27;;;18.20;99.90;;;;;;5064419;28;20228;-96
2022/07/12 08:49:44;;;;;;;3.77;1.47;;;18.10;99.90;;;;;;5429471;22;20243;-96
2022/07/12 08:52:29;;;;;;;1.47;1.37;;;18.10;99.90;;;;;;5083697;28;20210;-96
2022/07/12 08:55:01;;;;;;;1.70;1.60;;;18.10;99.90;;;;;;5079827;28;20253;-96
2022/07/12 08:57:34;;;;;;;2.00;1.53;;;18.20;99.90;;;;;;5081426;28;20288;-96
2022/07/12 09:00:09;;;;;;;3.67;1.70;;;18.20;99.90;;;;;;5081752;28;20212;-96
2022/07/12 09:02:56;;;;;;;1.43;1.33;;;18.10;99.90;;;;;;5079594;28;20229;-96
2022/07/12 09:05:33;;;;;;;2.67;1.40;;;18.10;99.90;;;;;;5081118;28;20290;-96
2022/07/12 09:08:10;;;;;;;1.57;1.40;;;18.00;99.90;;;;;;5079259;28;20231;-96
2022/07/12 09:10:57;;;;;;;2.73;1.70;;;18.10;99.90;;;;;;5078615;28;20209;-96
2022/07/12 09:13:49;;;;;;;2.23;1.50;;;18.10;99.90;;;;;;5079285;28;20264;-96
2022/07/12 09:16:22;;;;;;;3.43;1.53;;;18.00;99.90;;;;;;5078713;28;20203;-96
2022/07/12 09:19:19;;;;;;;1.63;1.33;;;18.00;99.90;;;;;;5078187;28;20273;-96
2022/07/12 09:21:56;;;;;;;2.43;1.50;;;18.00;99.90;;;;;;5076917;28;20208;-96
2022/07/12 09:24:30;;;;;;;4.03;1.60;;;18.00;99.90;;;;;;5076427;28;20502;-96
2022/07/12 09:27:14;;;;;;;3.57;1.50;;;17.90;99.90;;;;;;5078810;28;20210;-96
2022/07/12 09:29:51;;;;;;;2.60;1.30;;;17.90;99.90;;;;;;5078081;28;20207;-96
2022/07/12 09:38:15;;;;;;;2.37;1.37;;;17.90;99.90;;;;;;5089869;28;20265;-96
2022/07/12 09:40:51;;;;;;;1.50;1.20;;;17.90;99.90;;;;;;5085184;28;20215;-96
2022/07/12 09:43:25;;;;;;;1.37;1.23;;;17.90;99.90;;;;;;5085065;28;20233;-96
2022/07/12 09:45:58;;;;;;;1.53;1.10;;;17.90;99.90;;;;;;5078505;28;20196;-96
2022/07/12 09:48:34;;;;;;;1.30;1.10;;;17.80;99.90;;;;;;5078344;28;20255;-96
2022/07/12 09:51:10;;;;;;;2.07;1.07;;;17.80;99.90;;;;;;5078174;28;20272;-96
2022/07/12 09:53:47;;;;;;;1.93;1.30;;;17.80;99.90;;;;;;5082909;28;20266;-96
2022/07/12 09:56:22;;;;;;;2.00;1.10;;;17.80;99.90;;;;;;5081383;28;20580;-96
2022/07/12 09:59:10;;;;;;;1.97;1.10;;;17.80;99.90;;;;;;5086093;28;20202;-97
2022/07/12 10:01:43;;;;;;;1.33;0.93;;;17.80;99.90;;;;;;5089271;28;20237;-96
2022/07/12 10:04:22;;;;;;;1.47;1.27;;;17.80;99.90;;;;;;5091127;28;20210;-95
2022/07/12 10:06:55;;;;;;;2.23;1.30;;;17.80;99.90;;;;;;5090782;28;20203;-96
2022/07/12 10:09:32;;;;;;;1.77;1.07;;;17.70;99.90;;;;;;5070902;28;20658;-96
2022/07/12 10:12:04;;;;;;;2.20;1.17;;;17.70;99.90;;;;;;5077798;28;20211;-96
2022/07/12 10:14:43;;;;;;;4.30;1.23;;;17.60;99.90;;;;;;5067916;28;20439;-96
2022/07/12 10:17:24;;;;;;;1.83;1.20;;;17.60;99.90;;;;;;5068528;28;20203;-96
2022/07/12 10:20:16;;;;;;;1.53;1.13;;;17.60;99.90;;;;;;5062857;28;20539;-96
2022/07/12 10:22:49;;;;;;;2.27;1.10;;;17.60;99.90;;;;;;5064463;28;20266;-95
2022/07/12 10:25:41;;;;;;;1.87;0.90;;;17.50;99.90;;;;;;5063307;28;20266;-96
2022/07/12 10:28:14;;;;;;;4.07;1.33;;;17.50;99.90;;;;;;5064045;28;20278;-96
2022/07/12 10:33:35;;;;;;;2.17;1.17;;;17.50;99.90;;;;;;5073843;28;20212;-96
2022/07/12 10:36:07;;;;;;;3.13;1.23;;;17.40;99.90;;;;;;5066093;28;20223;-96
2022/07/12 10:38:45;;;;;;;1.40;1.07;;;17.40;99.90;;;;;;5060867;28;20231;-96
2022/07/12 10:41:33;;;;;;;2.50;1.20;;;17.40;99.90;;;;;;5060465;28;20200;-96
2022/07/12 10:44:09;;;;;;;2.70;1.17;;;17.30;99.90;;;;;;5060363;28;20236;-96
2022/07/12 10:47:12;;;;;;;1.77;1.10;;;17.30;99.90;;;;;;5066491;28;20237;-94
2022/07/12 10:49:52;;;;;;;3.83;1.07;;;17.30;99.90;;;;;;5066520;28;20664;-96
2022/07/12 10:52:31;;;;;;;1.83;1.03;;;17.20;99.90;;;;;;5070267;28;20208;-96
2022/07/12 10:55:25;;;;;;;1.27;1.10;;;17.20;99.90;;;;;;5069629;28;20212;-96
2022/07/12 10:58:00;;;;;;;1.23;1.13;;;17.20;99.90;;;;;;5076984;28;20204;-96
2022/07/12 11:00:32;;;;;;;1.57;1.30;;;17.10;99.90;;;;;;5083408;28;20218;-96
2022/07/12 11:03:20;;;;;;;2.53;1.40;;;17.10;99.90;;;;;;5080406;28;20286;-96
2022/07/12 11:06:01;;;;;;;2.23;1.33;;;17.10;99.90;;;;;;5082192;28;20211;-96
2022/07/12 11:08:35;;;;;;;1.23;1.13;;;17.10;99.90;;;;;;5082370;28;20312;-96
2022/07/12 11:11:07;;;;;;;1.20;1.00;;;17.10;99.90;;;;;;5080283;28;20603;-96
2022/07/12 11:13:43;;;;;;;2.20;1.00;;;17.10;99.90;;;;;;5082498;28;20207;-96
2022/07/12 11:16:39;;;;;;;2.53;1.10;;;17.10;99.90;;;;;;5080918;28;20663;-96
2022/07/12 11:19:12;;;;;;;1.20;1.00;;;17.10;99.90;;;;;;5082035;28;20215;-96
2022/07/12 11:21:54;;;;;;;1.53;0.93;;;17.10;99.90;;;;;;5080472;28;20612;-96
2022/07/12 11:24:27;;;;;;;1.83;1.17;;;17.10;99.90;;;;;;5080264;28;20226;-96
2022/07/12 11:26:59;;;;;;;1.90;0.90;;;17.10;99.90;;;;;;5079486;28;20265;-96
2022/07/12 11:29:36;;;;;;;1.30;1.10;;;17.00;99.90;;;;;;5078819;28;20231;-96
2022/07/12 11:32:10;;;;;;;1.27;1.00;;;17.10;99.90;;;;;;5078963;28;20215;-96
2022/07/12 11:34:42;;;;;;;6.60;1.10;;;17.10;99.90;;;;;;5080372;28;20229;-96
2022/07/12 11:37:13;;;;;;;1.40;1.13;;;17.00;99.90;;;;;;5079801;28;20215;-96
2022/07/12 11:39:46;;;;;;;2.37;1.30;;;17.00;99.90;;;;;;5079307;28;20211;-96
2022/07/12 11:42:18;;;;;;;1.70;1.20;;;16.90;99.90;;;;;;5079346;28;20208;-96
2022/07/12 11:44:55;;;;;;;1.03;0.90;;;16.90;99.90;;;;;;5079603;28;20208;-96
2022/07/12 11:47:27;;;;;;;2.07;1.10;;;16.80;99.90;;;;;;5080601;28;20215;-96
2022/07/12 11:50:00;;;;;;;1.60;1.17;;;16.70;99.90;;;;;;5080117;28;20227;-96
2022/07/12 11:52:32;;;;;;;1.77;1.10;;;16.70;99.90;;;;;;5080708;28;20199;-96
2022/07/12 11:55:11;;;;;;;2.00;1.30;;;16.60;99.90;;;;;;5080628;28;20273;-96
2022/07/12 11:57:45;;;;;;;1.73;1.13;;;16.60;99.90;;;;;;5081001;28;20215;-96
2022/07/12 12:00:28;;;;;;;1.17;1.07;;;16.60;99.90;;;;;;5083382;28;20212;-96
2022/07/12 12:03:03;;;;;;;1.17;1.00;;;16.50;99.90;;;;;;5080644;28;20207;-96
2022/07/12 12:05:39;;;;;;;1.27;1.17;;;16.50;99.90;;;;;;5080134;28;20690;-96
2022/07/12 12:08:14;;;;;;;1.30;0.93;;;16.50;99.90;;;;;;5079803;28;20208;-96
2022/07/12 12:10:56;;;;;;;1.03;0.90;;;16.40;99.90;;;;;;5078623;28;20231;-96
2022/07/12 12:13:30;;;;;;;2.63;1.13;;;16.30;99.90;;;;;;5079905;28;20211;-96
2022/07/12 12:16:08;;;;;;;1.53;1.03;;;16.30;99.90;;;;;;5082748;28;20207;-96
2022/07/12 12:18:44;;;;;;;2.67;0.97;;;16.20;99.90;;;;;;5079344;28;20206;-96
2022/07/12 12:21:17;;;;;;;1.23;1.10;;;16.10;99.90;;;;;;5079278;28;20229;-96
2022/07/12 12:23:49;;;;;;;1.83;1.10;;;16.10;99.90;;;;;;5082858;28;20215;-96
2022/07/12 12:26:22;;;;;;;1.20;1.10;;;16.10;99.90;;;;;;5080893;28;20215;-96
2022/07/12 12:28:56;;;;;;;1.20;1.10;;;16.00;99.90;;;;;;5080002;28;20239;-96
2022/07/12 12:31:30;;;;;;;1.53;1.17;;;16.00;99.90;;;;;;5080427;28;20655;-96
2022/07/12 12:34:02;;;;;;;1.27;1.10;;;16.00;99.90;;;;;;5082957;28;20192;-96
2022/07/12 12:36:40;;;;;;;1.90;1.00;;;15.90;99.90;;;;;;5080722;28;20314;-96
2022/07/12 12:39:11;;;;;;;2.43;1.00;;;15.90;99.90;;;;;;5082578;28;20237;-96
2022/07/12 12:41:44;;;;;;;3.03;1.20;;;15.80;99.90;;;;;;5079534;28;20670;-96
2022/07/12 12:44:18;;;;;;;2.13;1.10;;;15.80;99.90;;;;;;5078611;28;20212;-96
2022/07/12 12:46:55;;;;;;;1.47;1.17;;;15.80;99.90;;;;;;5077836;28;20246;-96
2022/07/12 12:49:48;;;;;;;1.20;1.00;;;15.70;99.90;;;;;;5078458;28;20239;-96
2022/07/12 12:52:27;;;;;;;1.70;0.93;;;15.70;99.90;;;;;;5074338;28;20212;-96
2022/07/12 12:55:00;;;;;;;2.07;1.10;;;15.60;99.90;;;;;;5079480;28;20204;-95
2022/07/12 12:57:32;;;;;;;2.23;1.13;;;15.70;99.90;;;;;;5084155;28;20752;-96
2022/07/12 13:00:07;;;;;;;1.73;1.03;;;15.60;99.90;;;;;;5096724;28;20258;-96
2022/07/12 13:02:42;;;;;;;1.90;1.20;;;15.70;99.90;;;;;;5096636;28;20192;-95
2022/07/12 13:05:16;;;;;;;1.00;0.87;;;15.70;99.90;;;;;;5097162;28;20215;-96
2022/07/12 13:07:48;;;;;;;1.87;1.37;;;15.60;99.90;;;;;;5096859;28;20190;-96
2022/07/12 13:10:21;;;;;;;1.80;0.90;;;15.60;99.90;;;;;;5090055;28;20219;-96
2022/07/12 13:12:53;;;;;;;1.93;1.07;;;15.60;99.90;;;;;;5088067;28;20203;-96
2022/07/12 13:15:25;;;;;;;1.17;0.97;;;15.60;99.90;;;;;;5091033;28;20203;-96
2022/07/12 13:17:59;;;;;;;2.47;1.10;;;15.60;99.90;;;;;;5084326;28;20195;-96
2022/07/12 13:20:32;;;;;;;1.53;1.10;;;15.60;99.90;;;;;;5079835;28;20219;-96
2022/07/12 13:23:05;;;;;;;1.87;1.20;;;15.60;99.90;;;;;;5079464;28;20268;-96
2022/07/12 13:25:37;;;;;;;1.83;1.20;;;15.70;99.90;;;;;;5079197;28;20259;-96
2022/07/12 13:28:10;;;;;;;2.47;1.10;;;15.60;99.90;;;;;;5079286;28;20290;-96
2022/07/12 13:30:44;;;;;;;2.23;1.10;;;15.70;99.90;;;;;;5079874;28;20227;-96
2022/07/12 13:33:16;;;;;;;2.13;1.20;;;15.70;99.90;;;;;;5088638;28;20286;-95
2022/07/12 13:35:50;;;;;;;1.73;1.00;;;15.80;99.90;;;;;;5095475;28;20267;-96
2022/07/12 13:38:23;;;;;;;1.83;0.80;;;15.90;99.90;;;;;;5093262;28;20204;-95
2022/07/12 13:40:56;;;;;;;0.90;0.70;;;16.10;99.90;;;;;;5094089;28;20245;-96
2022/07/12 13:43:30;;;;;;;2.57;1.03;;;16.20;99.90;;;;;;5095606;28;20206;-95
2022/07/12 13:46:02;;;;;;;1.37;1.00;;;16.20;99.90;;;;;;5096299;28;20187;-96
2022/07/12 13:48:36;;;;;;;1.13;0.73;;;16.30;99.90;;;;;;5096221;28;20240;-96
2022/07/12 13:51:08;;;;;;;3.43;0.77;;;16.40;99.90;;;;;;5095492;28;20239;-96
2022/07/12 13:54:01;;;;;;;1.00;0.77;;;16.40;99.90;;;;;;5096691;28;20274;-96
2022/07/12 13:56:33;;;;;;;1.53;0.70;;;16.40;99.90;;;;;;5091149;28;20211;-96
2022/07/12 13:59:06;;;;;;;1.00;0.90;;;16.50;99.90;;;;;;5080886;28;20203;-95
2022/07/12 14:01:38;;;;;;;4.37;1.10;;;16.60;99.90;;;;;;5079023;28;20233;-96
2022/07/12 14:04:15;;;;;;;1.70;1.00;;;16.60;99.90;;;;;;5080441;28;20207;-96
2022/07/12 14:06:47;;;;;;;2.20;0.93;;;16.60;99.90;;;;;;5079640;28;20253;-96
2022/07/12 14:09:18;;;;;;;1.63;0.90;;;16.70;99.90;;;;;;5079270;28;20203;-96
2022/07/12 14:17:24;;;;;;;1.57;0.93;;;16.80;99.90;;;;;;5078031;28;20289;-96
2022/07/12 14:20:07;;;;;;;2.30;0.93;;;16.90;99.90;;;;;;5077895;28;20216;-96
2022/07/12 14:22:39;;;;;;;1.57;0.90;;;16.90;99.90;;;;;;5077652;28;20203;-96
2022/07/12 14:25:20;;;;;;;1.90;1.23;;;16.90;99.90;;;;;;5080163;28;20214;-96
2022/07/12 14:27:54;;;;;;;2.50;0.90;;;17.00;99.90;;;;;;5083284;28;20677;-96
2022/07/12 14:30:26;;;;;;;2.23;1.10;;;17.00;99.90;;;;;;5082003;28;20319;-96
2022/07/12 14:32:59;;;;;;;1.20;1.10;;;17.00;99.90;;;;;;5082905;28;20277;-96
2022/07/12 14:35:49;;;;;;;1.87;0.90;;;17.00;99.90;;;;;;5082560;28;20210;-96
2022/07/12 14:38:27;;;;;;;1.93;1.20;;;17.10;99.90;;;;;;5081169;28;20872;-96
2022/07/12 14:41:01;;;;;;;2.63;1.07;;;17.00;99.90;;;;;;5077858;28;20223;-96
2022/07/12 14:43:44;;;;;;;1.57;0.90;;;17.10;99.90;;;;;;5062886;28;20204;-96
2022/07/12 14:46:18;;;;;;;2.33;0.90;;;17.30;99.90;;;;;;5067027;28;20215;-96
2022/07/12 14:48:50;;;;;;;2.60;0.90;;;17.70;99.90;;;;;;5088834;28;20203;-96
2022/07/12 14:51:26;;;;;;;2.00;0.80;;;18.50;99.90;;;;;;5088676;28;20235;-96
2022/07/12 14:53:58;;;;;;;2.40;0.97;;;19.10;99.90;;;;;;5092782;28;20635;-96
2022/07/12 14:56:31;;;;;;;1.63;0.77;;;19.80;99.90;;;;;;5091066;28;20230;-96
2022/07/12 14:59:03;;;;;;;1.30;0.97;;;20.30;99.90;;;;;;5092408;28;20603;-96
2022/07/12 15:01:36;;;;;;;1.53;0.80;;;20.70;99.90;;;;;;5093192;28;20203;-96
2022/07/12 15:04:11;;;;;;;4.17;0.97;;;20.80;99.90;;;;;;5097352;28;20233;-96
2022/07/12 15:06:46;;;;;;;0.60;0.60;;;20.80;99.90;;;;;;5095468;28;20203;-96
2022/07/12 15:09:20;;;;;;;1.40;0.60;;;20.80;99.90;;;;;;5096976;28;20206;-96
2022/07/12 15:11:54;;;;;;;1.50;0.70;;;21.20;99.90;;;;;;5094490;28;20246;-96
2022/07/12 15:36:07;;;;;;;1.50;0.70;;;22.60;99.90;;;;;;5516996;22;20232;-96
2022/07/12 15:41:15;;;;;;;1.30;0.73;;;21.40;99.90;;;;;;5126875;22;20239;-96
2022/07/12 15:43:49;;;;;;;0.80;0.80;;;21.20;99.90;;;;;;5056329;28;20275;-96
2022/07/12 15:46:22;;;;;;;2.43;0.90;;;20.90;99.90;;;;;;5052561;28;20212;-96
2022/07/12 15:48:56;;;;;;;2.20;0.90;;;20.70;99.90;;;;;;5056180;28;20205;-96
2022/07/12 15:54:22;;;;;;;2.67;0.87;;;20.60;99.90;;;;;;5054203;28;20209;-96
2022/07/12 15:56:57;;;;;;;3.30;0.90;;;20.50;99.90;;;;;;5058093;28;20192;-96
2022/07/12 16:02:38;;;;;;;1.73;0.80;;;20.50;99.90;;;;;;5052679;28;20205;-96
2022/07/12 16:05:10;;;;;;;1.90;0.90;;;20.50;99.90;;;;;;5041940;28;20272;-96
2022/07/12 16:07:44;;;;;;;3.83;1.13;;;20.50;99.90;;;;;;5043493;28;20244;-96
2022/07/12 16:10:18;;;;;;;3.10;0.80;;;20.40;99.90;;;;;;5041993;28;20677;-96
2022/07/12 16:12:50;;;;;;;2.13;0.90;;;20.30;99.90;;;;;;5042402;28;20270;-96
2022/07/12 16:15:24;;;;;;;1.03;0.90;;;20.40;99.90;;;;;;4680168;28;10000589;-96
2022/07/12 16:17:56;;;;;;;1.73;0.90;;;20.50;99.90;;;;;;5023917;28;20540;-96
2022/07/12 16:20:30;;;;;;;2.10;0.97;;;20.50;99.90;;;;;;5026075;28;20206;-96
2022/07/12 16:23:11;;;;;;;1.90;1.13;;;20.50;99.90;;;;;;5026797;28;20208;-96
2022/07/12 16:25:47;;;;;;;2.50;0.90;;;20.50;99.90;;;;;;5040060;28;20696;-96
2022/07/12 16:28:20;;;;;;;0.70;0.70;;;20.60;99.90;;;;;;5048045;28;20281;-96
2022/07/12 16:30:54;;;;;;;3.13;1.30;;;20.60;99.90;;;;;;5046935;28;20229;-96
2022/07/12 16:33:27;;;;;;;1.67;0.90;;;20.70;99.90;;;;;;5046026;28;20216;-96
2022/07/12 16:36:03;;;;;;;1.53;0.93;;;20.70;99.90;;;;;;5047616;28;20205;-96
2022/07/12 16:38:41;;;;;;;1.37;0.90;;;20.70;99.90;;;;;;5047280;28;20219;-96
2022/07/12 16:41:14;;;;;;;2.23;1.10;;;20.70;99.90;;;;;;5047051;28;20251;-96
2022/07/12 16:43:47;;;;;;;4.57;1.00;;;20.70;99.90;;;;;;5048387;28;20708;-96
2022/07/12 16:46:21;;;;;;;1.70;0.80;;;20.70;99.90;;;;;;5053299;28;20287;-96
2022/07/12 16:48:52;;;;;;;0.93;0.77;;;20.70;99.90;;;;;;5045749;28;20201;-96
2022/07/12 16:51:25;;;;;;;1.10;0.80;;;20.80;99.90;;;;;;5042484;28;20266;-96
2022/07/12 16:54:14;;;;;;;2.13;0.93;;;20.90;99.90;;;;;;5046038;28;20276;-96
2022/07/12 16:59:38;;;;;;;3.73;1.10;;;21.10;99.90;;;;;;5048973;28;20205;-96
2022/07/12 17:02:12;;;;;;;5.57;1.20;;;21.20;99.90;;;;;;5051976;28;20201;-96
2022/07/12 17:04:48;;;;;;;2.70;0.97;;;21.30;99.90;;;;;;5050603;28;20314;-96
2022/07/12 17:07:24;;;;;;;1.03;0.97;;;21.40;99.90;;;;;;5052167;28;20197;-96
2022/07/12 17:09:58;;;;;;;2.63;0.90;;;21.40;99.90;;;;;;5052409;28;20292;-96
2022/07/12 17:12:33;;;;;;;2.20;0.90;;;21.50;99.90;;;;;;5052497;28;20239;-96
2022/07/12 17:15:20;;;;;;;2.17;1.10;;;21.60;99.90;;;;;;5055105;28;20236;-96